Thunderstorms From: 25-05-2018 23:09 Until: 26-05-2018 15:00 warning for: Thunderstorms Level: Yellow info button

Although rather usual in this region, locally or potentially dangerous phenomena are expected. (such as local winds, summer thunderstorms, rising streams or high waves) Be aware and pay attention to the latest weather updates, especially if you carry out activities exposed to weather or close to a stream or shoreline. 


Meteo18 Weather Cam more information Meteo18 Weather Cam


warning for Thunderstorms more information blitzortung!


Rain radar more information rain snow radar


Visit our other weather sites:

Template documentation
and downloads

And another site



Weather Underground History page Text

Daily Summary for December 17, 2017 Units:  Metric    English   Both
« Previous Day
Next Day »
Daily Weekly Monthly Yearly Custom
  High: Low: Average:
Temperature: -17.8 °C -17.6 °C -16.4 °C
Dew Point: -17.8 °C -18.1 °C -17 °C
Humidity: Humidity % 76 % 93 %
Wind Speed: 0 km/h 0 km/h 4 km/h
Wind Gust: 0 km/h - -
Wind:- - WSW
Pressure: 0 hPa 34682.8 hPa -
Precipitation: 38.1 mm    
Historical Graphs
 
 
Tabular Data for December 17, 2017
Time Temperature Dew Point Pressure Wind Wind Speed Wind Gust Humidity Rainfall Rate (Hourly)
-17.8 °C -17.8 °C 0 hPa Calm     Humidity % 0 mm
00:02 -16.9 °C -17.8 °C 34693 hPa Calm   12.9 km/h 90 % 0 mm
00:07 -17.1 °C -17.9 °C 34693 hPa SE 5.1 km/h 7.7 km/h 90 % 0 mm
00:12 -17.2 °C -18 °C 34703.1 hPa SSE 2.6 km/h 5.1 km/h 90 % 0 mm
00:17 -17.3 °C -18 °C 34703.1 hPa South 2.6 km/h 5.1 km/h 91 % 0 mm
00:22 -17.3 °C -18 °C 34703.1 hPa SSE 5.1 km/h 5.1 km/h 91 % 0 mm
00:27 -17.3 °C -17.9 °C 34703.1 hPa SE 2.6 km/h 5.1 km/h 92 % 0 mm
00:32 -17.3 °C -17.9 °C 34703.1 hPa Calm   5.1 km/h 92 % 0 mm
00:42 -17.3 °C -18 °C 34693 hPa SSW 2.6 km/h 7.7 km/h 92 % 0 mm
00:52 -17.4 °C -18.1 °C 34693 hPa Calm   7.7 km/h 92 % 0 mm
00:57 -17.4 °C -17.9 °C 34693 hPa Calm   7.7 km/h 93 % 0 mm
01:02 -17.4 °C -18 °C 34703.1 hPa SSE 2.6 km/h 5.1 km/h 93 % 0 mm
01:07 -17.4 °C -18 °C 34693 hPa Calm   5.1 km/h 93 % 0 mm
01:12 -17.4 °C -18 °C 34693 hPa South 2.6 km/h 2.6 km/h 93 % 0 mm
01:17 -17.5 °C -18.1 °C 34693 hPa Calm   10.3 km/h 93 % 0 mm
01:22 -17.5 °C -18 °C 34693 hPa Calm   10.3 km/h 94 % 0 mm
01:27 -17.6 °C -18.1 °C 34693 hPa SE 2.6 km/h 10.3 km/h 94 % 0 mm
01:37 -17.6 °C -18.1 °C 34693 hPa SE 2.6 km/h 5.1 km/h 94 % 0 mm
01:42 -17.6 °C -18.1 °C 34693 hPa SE 2.6 km/h 5.1 km/h 94 % 0 mm
01:47 -17.6 °C -18.1 °C 34682.8 hPa SSE 2.6 km/h 5.1 km/h 94 % 0 mm
01:52 -17.6 °C -18.1 °C 34693 hPa Calm   5.1 km/h 94 % 0 mm
01:57 -17.6 °C -18.1 °C 34693 hPa Calm   5.1 km/h 94 % 0 mm
02:02 -17.6 °C -17.9 °C 34693 hPa Calm   5.1 km/h 95 % 0 mm
02:12 -17.6 °C -17.9 °C 34693 hPa Calm   7.7 km/h 95 % 0 mm
02:17 -17.6 °C -17.9 °C 34703.1 hPa SSE 2.6 km/h 7.7 km/h 95 % 0 mm
02:22 -17.6 °C -17.9 °C 34703.1 hPa Calm   7.7 km/h 95 % 7.62 mm
02:32 -17.6 °C -17.9 °C 34703.1 hPa SSE 2.6 km/h 5.1 km/h 95 % 7.62 mm
02:42 -17.4 °C -17.8 °C 34703.1 hPa WSW 2.6 km/h 7.7 km/h 95 % 7.62 mm
02:47 -17.3 °C -17.6 °C 34693 hPa Calm   7.7 km/h 96 % 7.62 mm
02:52 -17.3 °C -17.7 °C 34703.1 hPa WSW 5.1 km/h 5.1 km/h 95 % 12.7 mm
02:57 -17.2 °C -17.5 °C 34703.1 hPa Calm   7.7 km/h 96 % 12.7 mm
03:07 -17.1 °C -17.4 °C 34703.1 hPa Calm   10.3 km/h 96 % 12.7 mm
03:12 -17.1 °C -17.4 °C 34703.1 hPa West 2.6 km/h 10.3 km/h 95 % 12.7 mm
03:17 -17.1 °C -17.4 °C 34693 hPa WNW 2.6 km/h 10.3 km/h 95 % 12.7 mm
03:22 -17.1 °C -17.6 °C 34693 hPa West 7.7 km/h 12.9 km/h 94 % 12.7 mm
03:27 -17.1 °C -17.6 °C 34693 hPa Calm   12.9 km/h 94 % 25.4 mm
03:32 -17.2 °C -17.7 °C 34693 hPa WSW 5.1 km/h 12.9 km/h 94 % 25.4 mm
03:37 -17.2 °C -17.6 °C 34693 hPa West 5.1 km/h 10.3 km/h 95 % 33.02 mm
03:42 -17.2 °C -17.6 °C 34693 hPa Calm   7.7 km/h 95 % 33.02 mm
03:47 -17.2 °C -17.6 °C 34693 hPa Calm   7.7 km/h 95 % 33.02 mm
03:52 -17.3 °C -17.7 °C 34693 hPa Calm   7.7 km/h 95 % 25.4 mm
03:57 -17.3 °C -17.7 °C 34693 hPa Calm   7.7 km/h 95 % 25.4 mm
04:02 -17.3 °C -17.8 °C 34693 hPa SSW 2.6 km/h 7.7 km/h 94 % 25.4 mm
04:12 -17.4 °C -17.8 °C 34693 hPa Calm   7.7 km/h 95 % 25.4 mm
04:17 -17.5 °C -17.9 °C 34693 hPa SE 2.6 km/h 7.7 km/h 95 % 20.32 mm
04:22 -17.6 °C -17.9 °C 34703.1 hPa ESE 2.6 km/h 7.7 km/h 95 % 12.7 mm
04:32 -17.6 °C -17.9 °C 34693 hPa Calm   7.7 km/h 95 % 12.7 mm
04:37 -17.6 °C -17.9 °C 34693 hPa Calm   7.7 km/h 95 % 7.62 mm
04:42 -17.5 °C -17.8 °C 34693 hPa SSW 5.1 km/h 7.7 km/h 96 % 7.62 mm
04:47 -17.5 °C -17.8 °C 34693 hPa South 5.1 km/h 7.7 km/h 96 % 7.62 mm
04:52 -17.4 °C -17.8 °C 34693 hPa Calm   7.7 km/h 96 % 7.62 mm
04:57 -17.4 °C -17.8 °C 34693 hPa SE 2.6 km/h 7.7 km/h 96 % 7.62 mm
05:02 -17.4 °C -17.8 °C 34693 hPa Calm   7.7 km/h 96 % 7.62 mm
05:07 -17.4 °C -17.8 °C 34693 hPa Calm   5.1 km/h 96 % 0 mm
05:17 -17.4 °C -17.7 °C 34693 hPa Calm   5.1 km/h 96 % 0 mm
05:22 -17.4 °C -17.7 °C 34693 hPa Calm   5.1 km/h 96 % 0 mm
05:32 -17.4 °C -17.7 °C 34693 hPa South 2.6 km/h 5.1 km/h 96 % 0 mm
05:37 -17.4 °C -17.8 °C 34693 hPa South 2.6 km/h 7.7 km/h 96 % 0 mm
05:42 -17.4 °C -17.7 °C 34693 hPa SSW 5.1 km/h 7.7 km/h 96 % 0 mm
05:47 -17.4 °C -17.7 °C 34693 hPa Calm   7.7 km/h 96 % 0 mm
05:52 -17.4 °C -17.7 °C 34693 hPa SSW 2.6 km/h 7.7 km/h 96 % 0 mm
06:02 -17.3 °C -17.7 °C 34693 hPa SSW 2.6 km/h 5.1 km/h 96 % 0 mm
06:12 -17.2 °C -17.4 °C 34703.1 hPa Calm   7.7 km/h 97 % 0 mm
06:17 -16.9 °C -17.1 °C 34703.1 hPa WNW 5.1 km/h 7.7 km/h 97 % 0 mm
06:22 -16.7 °C -16.9 °C 34703.1 hPa Calm   7.7 km/h 97 % 0 mm
06:27 -16.6 °C -16.8 °C 34703.1 hPa Calm   15.6 km/h 97 % 0 mm
06:32 -16.6 °C -16.8 °C 34703.1 hPa WSW 2.6 km/h 15.6 km/h 97 % 0 mm
06:37 -16.6 °C -16.8 °C 34703.1 hPa West 5.1 km/h 10.3 km/h 97 % 0 mm
06:42 -16.6 °C -16.8 °C 34703.1 hPa Calm   10.3 km/h 97 % 0 mm
06:52 -16.5 °C -16.8 °C 34703.1 hPa NW 2.6 km/h 15.6 km/h 96 % 0 mm
06:57 -16.5 °C -16.8 °C 34703.1 hPa Calm   15.6 km/h 96 % 0 mm
07:02 -16.5 °C -16.8 °C 34703.1 hPa WNW 7.7 km/h 15.6 km/h 96 % 0 mm
07:12 -16.4 °C -16.8 °C 34703.1 hPa WNW 5.1 km/h 15.6 km/h 96 % 0 mm
07:22 -16.4 °C -16.8 °C 34703.1 hPa WNW 7.7 km/h 18.2 km/h 96 % 0 mm
07:27 -16.4 °C -16.8 °C 34716.7 hPa Calm   15.6 km/h 96 % 0 mm
07:32 -16.4 °C -16.8 °C 34716.7 hPa NNW 5.1 km/h 15.6 km/h 96 % 0 mm
07:42 -16.4 °C -16.8 °C 34716.7 hPa NNW 7.7 km/h 10.3 km/h 96 % 0 mm
07:52 -16.4 °C -16.8 °C 34726.8 hPa NNW 2.6 km/h 12.9 km/h 96 % 0 mm
07:57 -16.4 °C -16.7 °C 34726.8 hPa NW 5.1 km/h 18.2 km/h 96 % 0 mm
08:02 -16.4 °C -16.7 °C 34726.8 hPa WNW 12.9 km/h 18.2 km/h 96 % 0 mm
08:07 -16.4 °C -16.7 °C 34726.8 hPa NW 12.9 km/h 20.8 km/h 96 % 0 mm
08:22 -16.3 °C -16.7 °C 34740.4 hPa WNW 12.9 km/h 20.8 km/h 96 % 0 mm
08:32 -16.3 °C -16.7 °C 34740.4 hPa NW 12.9 km/h 25.9 km/h 96 % 0 mm
08:37 -16.4 °C -16.7 °C 34740.4 hPa WNW 2.6 km/h 25.9 km/h 96 % 0 mm
08:42 -16.4 °C -16.7 °C 34750.5 hPa WNW 15.6 km/h 25.9 km/h 96 % 0 mm
08:52 -16.3 °C -16.7 °C 34750.5 hPa WNW 7.7 km/h 20.8 km/h 96 % 0 mm
09:02 -16.3 °C -16.7 °C 34760.7 hPa West 5.1 km/h 20.8 km/h 96 % 0 mm
09:12 -16.3 °C -16.7 °C 34760.7 hPa WNW 5.1 km/h 20.8 km/h 95 % 0 mm
09:17 -16.3 °C -16.7 °C 34760.7 hPa WNW 5.1 km/h 15.6 km/h 95 % 0 mm
09:22 -16.3 °C -16.7 °C 34760.7 hPa WNW 15.6 km/h 15.6 km/h 95 % 0 mm
09:32 -16.3 °C -16.7 °C 34760.7 hPa WNW 7.7 km/h 15.6 km/h 95 % 0 mm
09:42 -16.3 °C -16.7 °C 34774.2 hPa NNW 5.1 km/h 15.6 km/h 95 % 0 mm
09:47 -16.2 °C -16.6 °C 34774.2 hPa WNW 2.6 km/h 12.9 km/h 95 % 0 mm
09:52 -16.2 °C -16.6 °C 34774.2 hPa Calm   12.9 km/h 95 % 0 mm
10:02 -16.2 °C -16.5 °C 34784.4 hPa WNW 5.1 km/h 15.6 km/h 96 % 0 mm
10:07 -16.2 °C -16.5 °C 34797.9 hPa WNW 5.1 km/h 12.9 km/h 96 % 0 mm
10:12 -16.1 °C -16.4 °C 34797.9 hPa Calm   12.9 km/h 96 % 0 mm
10:17 -16.1 °C -16.5 °C 34797.9 hPa WNW 15.6 km/h 15.6 km/h 95 % 0 mm
10:22 -16.1 °C -16.4 °C 34797.9 hPa WNW 5.1 km/h 12.9 km/h 96 % 0 mm
10:27 -16.2 °C -16.6 °C 34797.9 hPa WNW 10.3 km/h 23.3 km/h 95 % 0 mm
10:32 -16.2 °C -16.6 °C 34797.9 hPa WNW 18.2 km/h 23.3 km/h 95 % 0 mm
10:37 -16.2 °C -16.6 °C 34808.1 hPa WNW 5.1 km/h 23.3 km/h 95 % 0 mm
10:42 -16.2 °C -16.6 °C 34808.1 hPa WNW 12.9 km/h 23.3 km/h 95 % 0 mm
10:52 -16.1 °C -16.4 °C 34808.1 hPa NW 5.1 km/h 23.3 km/h 96 % 0 mm
10:57 -16.1 °C -16.4 °C 34808.1 hPa North 7.7 km/h 23.3 km/h 96 % 0 mm
11:02 -16.1 °C -16.4 °C 34818.2 hPa NNW 2.6 km/h 23.3 km/h 96 % 0 mm
11:12 -16.1 °C -16.4 °C 34818.2 hPa NNW 2.6 km/h 20.8 km/h 95 % 0 mm
11:17 -16.1 °C -16.4 °C 34818.2 hPa NW 10.3 km/h 20.8 km/h 96 % 0 mm
11:22 -16.1 °C -16.4 °C 34818.2 hPa NW 5.1 km/h 20.8 km/h 96 % 0 mm
11:27 -16.1 °C -16.4 °C 34818.2 hPa NNW 2.6 km/h 20.8 km/h 96 % 0 mm
11:37 -16 °C -16.3 °C 34818.2 hPa NNW 7.7 km/h 15.6 km/h 96 % 0 mm
11:47 -15.9 °C -16.3 °C 34808.1 hPa NW 2.6 km/h 15.6 km/h 96 % 0 mm
11:52 -15.9 °C -16.2 °C 34818.2 hPa WNW 2.6 km/h 15.6 km/h 96 % 0 mm
11:57 -15.9 °C -16.2 °C 34808.1 hPa West 2.6 km/h 15.6 km/h 96 % 0 mm
12:07 -15.9 °C -16.2 °C 34808.1 hPa NNW 10.3 km/h 12.9 km/h 96 % 0 mm
12:12 -15.8 °C -16.2 °C 34808.1 hPa NW 2.6 km/h 12.9 km/h 96 % 0 mm
12:17 -15.8 °C -16.2 °C 34808.1 hPa NW 2.6 km/h 15.6 km/h 95 % 0 mm
12:22 -15.8 °C -16.2 °C 34808.1 hPa Calm   15.6 km/h 95 % 0 mm
12:27 -15.8 °C -16.2 °C 34797.9 hPa NNE 2.6 km/h 10.3 km/h 95 % 0 mm
12:32 -15.8 °C -16.3 °C 34808.1 hPa Calm   10.3 km/h 94 % 0 mm
12:37 -15.8 °C -16.3 °C 34808.1 hPa Calm   7.7 km/h 94 % 0 mm
12:47 -15.7 °C -16.2 °C 34808.1 hPa Calm   2.6 km/h 94 % 0 mm
12:57 -15.7 °C -16.2 °C 34797.9 hPa NE 5.1 km/h 7.7 km/h 94 % 0 mm
13:02 -15.7 °C -16.2 °C 34797.9 hPa NE 2.6 km/h 7.7 km/h 93 % 0 mm
13:12 -15.7 °C -16.2 °C 34797.9 hPa Calm   7.7 km/h 93 % 0 mm
13:17 -15.7 °C -16.3 °C 34797.9 hPa NW 5.1 km/h 7.7 km/h 92 % 0 mm
13:22 -15.7 °C -16.4 °C 34797.9 hPa WNW 2.6 km/h 7.7 km/h 91 % 0 mm
13:32 -15.6 °C -16.4 °C 34797.9 hPa Calm   10.3 km/h 89 % 0 mm
13:42 -15.4 °C -16.5 °C 34797.9 hPa NW 7.7 km/h 15.6 km/h 87 % 0 mm
13:52 -15.2 °C -16.4 °C 34797.9 hPa Calm   15.6 km/h 86 % 0 mm
13:57 -15.2 °C -16.3 °C 34797.9 hPa WNW 7.7 km/h 10.3 km/h 87 % 0 mm
14:02 -15.2 °C -16.4 °C 34797.9 hPa WNW 2.6 km/h 10.3 km/h 85 % 0 mm
14:12 -15.2 °C -16.6 °C 34797.9 hPa West 5.1 km/h 12.9 km/h 84 % 0 mm
14:17 -15.3 °C -16.7 °C 34797.9 hPa NW 7.7 km/h 15.6 km/h 84 % 0 mm
14:22 -15.3 °C -16.7 °C 34797.9 hPa WNW 2.6 km/h 15.6 km/h 84 % 0 mm
14:32 -15.2 °C -16.6 °C 34797.9 hPa ENE 2.6 km/h 15.6 km/h 84 % 0 mm
14:42 -15.1 °C -16.5 °C 34797.9 hPa NNW 12.9 km/h 12.9 km/h 83 % 0 mm
14:47 -14.9 °C -16.6 °C 34797.9 hPa West 2.6 km/h 15.6 km/h 81 % 0 mm
14:52 -14.8 °C -16.6 °C 34797.9 hPa WNW 7.7 km/h 18.2 km/h 80 % 0 mm
14:57 -14.8 °C -16.9 °C 34797.9 hPa NW 15.6 km/h 18.2 km/h 76 % 0 mm
15:02 -14.9 °C -17 °C 34797.9 hPa WNW 15.6 km/h 18.2 km/h 77 % 0 mm
15:07 -15.1 °C -16.9 °C 34797.9 hPa NW 10.3 km/h 25.9 km/h 79 % 0 mm
15:22 -15.1 °C -16.9 °C 34808.1 hPa WNW 12.9 km/h 15.6 km/h 80 % 0 mm
15:32 -15.1 °C -16.9 °C 34818.2 hPa NW 2.6 km/h 15.6 km/h 80 % 0 mm
15:37 -15.1 °C -16.9 °C 34818.2 hPa West 5.1 km/h 15.6 km/h 80 % 0 mm
15:42 -15.1 °C -16.7 °C 34818.2 hPa West 10.3 km/h 20.8 km/h 82 % 0 mm
15:47 -15.2 °C -16.6 °C 34831.8 hPa WNW 7.7 km/h 20.8 km/h 83 % 0 mm
15:52 -15.2 °C -16.6 °C 34818.2 hPa WNW 10.3 km/h 20.8 km/h 83 % 0 mm
16:02 -15.2 °C -16.6 °C 34818.2 hPa WNW 7.7 km/h 20.8 km/h 84 % 0 mm
16:08 -15.3 °C -16.7 °C 34818.2 hPa WNW 7.7 km/h 15.6 km/h 84 % 0 mm
16:17 -15.3 °C -16.6 °C 34831.8 hPa Calm   10.3 km/h 85 % 0 mm
16:22 -15.3 °C -16.6 °C 34818.2 hPa West 2.6 km/h 10.3 km/h 85 % 0 mm
16:27 -15.4 °C -16.7 °C 34818.2 hPa West 5.1 km/h 10.3 km/h 85 % 0 mm
16:37 -15.4 °C -16.6 °C 34831.8 hPa WSW 2.6 km/h 7.7 km/h 86 % 0 mm
16:42 -15.5 °C -16.7 °C 34831.8 hPa West 2.6 km/h 5.1 km/h 86 % 0 mm
16:47 -15.5 °C -16.7 °C 34831.8 hPa West 2.6 km/h 5.1 km/h 86 % 0 mm
16:52 -15.6 °C -16.7 °C 34831.8 hPa West 2.6 km/h 5.1 km/h 87 % 0 mm
16:57 -15.7 °C -16.8 °C 34831.8 hPa West 2.6 km/h 5.1 km/h 87 % 0 mm
17:02 -15.7 °C -16.8 °C 34831.8 hPa Calm   5.1 km/h 87 % 0 mm
17:07 -15.7 °C -16.8 °C 34831.8 hPa Calm   5.1 km/h 87 % 0 mm
17:12 -15.8 °C -16.8 °C 34841.9 hPa Calm   2.6 km/h 88 % 0 mm
17:17 -15.8 °C -16.8 °C 34841.9 hPa West 2.6 km/h 2.6 km/h 88 % 0 mm
17:22 -15.8 °C -16.8 °C 34841.9 hPa WNW 5.1 km/h 7.7 km/h 88 % 0 mm
17:32 -15.9 °C -16.9 °C 34841.9 hPa Calm   7.7 km/h 88 % 0 mm
17:42 -16.1 °C -16.9 °C 34841.9 hPa Calm   5.1 km/h 90 % 0 mm
17:47 -16.1 °C -16.9 °C 34852.1 hPa West 2.6 km/h 5.1 km/h 90 % 0 mm
17:52 -16.1 °C -16.9 °C 34841.9 hPa West 2.6 km/h 5.1 km/h 90 % 0 mm
17:57 -16.1 °C -16.8 °C 34852.1 hPa West 2.6 km/h 5.1 km/h 91 % 0 mm
18:02 -16 °C -16.7 °C 34852.1 hPa Calm   5.1 km/h 91 % 0 mm
18:07 -16.1 °C -16.8 °C 34852.1 hPa Calm   7.7 km/h 91 % 0 mm
18:12 -16.1 °C -16.8 °C 34852.1 hPa Calm   7.7 km/h 91 % 0 mm
18:17 -16.1 °C -16.8 °C 34852.1 hPa WSW 2.6 km/h 7.7 km/h 92 % 0 mm
18:27 -16.1 °C -16.8 °C 34852.1 hPa Calm   5.1 km/h 92 % 0 mm
18:37 -16.3 °C -16.9 °C 34852.1 hPa Calm   2.6 km/h 92 % 0 mm
18:42 -16.3 °C -17 °C 34852.1 hPa Calm   2.6 km/h 92 % 0 mm
18:47 -16.4 °C -17.1 °C 34852.1 hPa Calm   2.6 km/h 92 % 0 mm
18:52 -16.4 °C -17 °C 34852.1 hPa Calm   2.6 km/h 93 % 0 mm
18:57 -16.5 °C -17.1 °C 34852.1 hPa Calm   2.6 km/h 93 % 0 mm
19:02 -16.5 °C -17.1 °C 34852.1 hPa Calm   2.6 km/h 93 % 0 mm
19:12 -16.6 °C -17.1 °C 34852.1 hPa Calm   2.6 km/h 94 % 0 mm
19:22 -16.6 °C -16.9 °C 34852.1 hPa Calm   2.6 km/h 95 % 0 mm
19:27 -16.6 °C -17.1 °C 34852.1 hPa Calm   2.6 km/h 94 % 0 mm
19:32 -16.7 °C -17.2 °C 34852.1 hPa Calm   2.6 km/h 94 % 0 mm
19:37 -16.7 °C -17.2 °C 34852.1 hPa Calm   2.6 km/h 94 % 0 mm
19:42 -16.8 °C -17.3 °C 34852.1 hPa Calm   2.6 km/h 94 % 0 mm
19:47 -16.8 °C -17.3 °C 34865.6 hPa Calm   2.6 km/h 94 % 0 mm
19:52 -16.8 °C -17.2 °C 34865.6 hPa West 5.1 km/h 5.1 km/h 95 % 0 mm
19:57 -16.6 °C -16.9 °C 34865.6 hPa West 2.6 km/h 7.7 km/h 96 % 0 mm
20:02 -16.6 °C -16.9 °C 34865.6 hPa West 5.1 km/h 7.7 km/h 96 % 0 mm
20:12 -16.4 °C -16.8 °C 34865.6 hPa SW 7.7 km/h 7.7 km/h 95 % 0 mm
20:22 -16.3 °C -16.7 °C 34865.6 hPa SW 7.7 km/h 15.6 km/h 95 % 0 mm
20:32 -16.3 °C -16.7 °C 34865.6 hPa WSW 5.1 km/h 15.6 km/h 95 % 0 mm
20:37 -16.2 °C -16.6 °C 34865.6 hPa WSW 15.6 km/h 18.2 km/h 95 % 0 mm
20:42 -16.2 °C -16.6 °C 34865.6 hPa West 5.1 km/h 18.2 km/h 95 % 0 mm
20:47 -16.2 °C -16.6 °C 34865.6 hPa West 5.1 km/h 18.2 km/h 95 % 0 mm
20:57 -16.2 °C -16.6 °C 34852.1 hPa SW 7.7 km/h 18.2 km/h 95 % 0 mm
21:02 -16.2 °C -16.6 °C 34852.1 hPa WSW 10.3 km/h 18.2 km/h 95 % 0 mm
21:07 -16.2 °C -16.6 °C 34852.1 hPa WSW 5.1 km/h 18.2 km/h 95 % 0 mm
21:12 -16.2 °C -16.6 °C 34852.1 hPa WSW 7.7 km/h 18.2 km/h 95 % 0 mm
21:17 -16.2 °C -16.6 °C 34852.1 hPa WSW 7.7 km/h 18.2 km/h 95 % 0 mm
21:22 -16.2 °C -16.6 °C 34852.1 hPa WSW 10.3 km/h 18.2 km/h 95 % 0 mm
21:27 -16.2 °C -16.6 °C 34852.1 hPa WSW 10.3 km/h 18.2 km/h 95 % 0 mm
21:37 -16.2 °C -16.6 °C 34852.1 hPa WSW 15.6 km/h 18.2 km/h 95 % 0 mm
21:42 -16.2 °C -16.6 °C 34865.6 hPa SW 7.7 km/h 18.2 km/h 95 % 0 mm
21:52 -16.2 °C -16.6 °C 34852.1 hPa SW 5.1 km/h 18.2 km/h 95 % 0 mm
21:57 -16.2 °C -16.6 °C 34852.1 hPa SW 7.7 km/h 18.2 km/h 95 % 0 mm
22:02 -16.2 °C -16.6 °C 34852.1 hPa SW 5.1 km/h 18.2 km/h 95 % 0 mm
22:12 -16.1 °C -16.4 °C 34852.1 hPa SW 7.7 km/h 18.2 km/h 95 % 0 mm
22:22 -16.1 °C -16.4 °C 34841.9 hPa West 10.3 km/h 18.2 km/h 95 % 0 mm
22:32 -16.1 °C -16.4 °C 34852.1 hPa SW 5.1 km/h 18.2 km/h 95 % 0 mm
22:37 -16.1 °C -16.4 °C 34841.9 hPa SW 5.1 km/h 18.2 km/h 95 % 0 mm
22:42 -16.1 °C -16.4 °C 34841.9 hPa SW 7.7 km/h 18.2 km/h 95 % 0 mm
22:47 -16.1 °C -16.4 °C 34841.9 hPa SSW 7.7 km/h 18.2 km/h 95 % 0 mm
22:57 -16.1 °C -16.4 °C 34841.9 hPa SSW 7.7 km/h 15.6 km/h 95 % 0 mm
23:02 -16.1 °C -16.4 °C 34831.8 hPa SW 5.1 km/h 15.6 km/h 95 % 0 mm
23:07 -16.1 °C -16.5 °C 34831.8 hPa South 5.1 km/h 18.2 km/h 95 % 0 mm
23:12 -16.1 °C -16.5 °C 34831.8 hPa SSW 5.1 km/h 18.2 km/h 95 % 0 mm
23:17 -16.1 °C -16.5 °C 34831.8 hPa SSW 2.6 km/h 15.6 km/h 95 % 0 mm
23:27 -16.1 °C -16.5 °C 34831.8 hPa SSW 7.7 km/h 10.3 km/h 95 % 0 mm
23:32 -16.1 °C -16.4 °C 34831.8 hPa SW 2.6 km/h 10.3 km/h 96 % 0 mm
23:42 -16.1 °C -16.4 °C 34831.8 hPa South 2.6 km/h 15.6 km/h 96 % 0 mm
23:52 -16.1 °C -16.4 °C 34818.2 hPa SSW 2.6 km/h 15.6 km/h 96 % 0 mm
Meteo18
Compliments of Weather Underground - 4 mb

Script developed by  Jim McMurry - jmcmurry@mwt.net Adapted for the template by  Wim van der Kuil - Leuven-Template.eu

You find our weather info also at:

European Weather Network

Weather Underground

Equipment we use:

Weather-station
Davis Vue

Weather-program
Meteobridge

Weather-server
Raspberry PI 2 B+

Provider
1 and 1

Davis Vue

Meteobridge

Raspberry PI 2 B+

1 and 1